Time;durP1;ratioP1;P1;durP2;ratioP2;P2;SDS_P1;SDS_P2;PMS_P1;PMS_P2;Temp;Humidity;BMP_temperature;BMP_pressure;BME280_temperature;BME280_humidity;BME280_pressure;Samples;Min_cycle;Max_cycle;Signal;HPM_P1;HPM_P2
2023/01/21 00:00:39;;;;;;;47.20;28.10;;;-1.30;99.90;;;;;;5092819;28;20413;-60
2023/01/21 00:03:06;;;;;;;49.87;28.70;;;-1.30;99.90;;;;;;5093858;28;20422;-60
2023/01/21 00:05:33;;;;;;;45.78;27.58;;;-1.30;99.90;;;;;;5092714;28;20410;-61
2023/01/21 00:07:59;;;;;;;51.37;29.33;;;-1.30;99.90;;;;;;5092375;28;20414;-60
2023/01/21 00:10:26;;;;;;;49.85;30.27;;;-1.40;99.90;;;;;;5092487;28;20504;-60
2023/01/21 00:12:53;;;;;;;52.97;30.00;;;-1.40;99.90;;;;;;5092443;28;20418;-60
2023/01/21 00:15:20;;;;;;;48.30;29.92;;;-1.50;99.90;;;;;;5093295;28;20804;-61
2023/01/21 00:17:48;;;;;;;51.23;29.67;;;-1.50;99.90;;;;;;5093459;28;20759;-61
2023/01/21 00:20:15;;;;;;;49.63;28.70;;;-1.40;99.90;;;;;;5094061;28;20402;-60
2023/01/21 00:22:42;;;;;;;50.08;30.35;;;-1.50;99.90;;;;;;5093109;28;20424;-60
2023/01/21 00:25:09;;;;;;;51.88;30.65;;;-1.50;99.90;;;;;;5093347;28;20401;-61
2023/01/21 00:27:36;;;;;;;52.67;31.48;;;-1.50;99.90;;;;;;5096835;28;20755;-60
2023/01/21 00:30:03;;;;;;;49.80;29.10;;;-1.50;99.90;;;;;;5096593;28;20421;-61
2023/01/21 00:32:30;;;;;;;53.63;30.02;;;-1.50;99.90;;;;;;5095856;28;20905;-59
2023/01/21 00:34:58;;;;;;;50.60;30.13;;;-1.40;99.90;;;;;;5095973;28;20420;-61
2023/01/21 00:37:25;;;;;;;55.55;30.10;;;-1.50;99.90;;;;;;5095815;28;20409;-61
2023/01/21 00:39:52;;;;;;;51.78;30.15;;;-1.50;99.90;;;;;;5095991;28;20410;-61
2023/01/21 00:42:19;;;;;;;50.20;30.30;;;-1.50;99.90;;;;;;5095854;28;20420;-61
2023/01/21 00:44:46;;;;;;;52.22;30.20;;;-1.50;99.90;;;;;;5095887;28;20574;-61
2023/01/21 00:47:13;;;;;;;49.42;29.42;;;-1.50;99.90;;;;;;5095675;28;20406;-61
2023/01/21 00:49:39;;;;;;;48.78;31.30;;;-1.50;99.90;;;;;;5095923;28;20766;-61
2023/01/21 00:52:07;;;;;;;51.53;29.92;;;-1.50;99.90;;;;;;5096979;28;20893;-61
2023/01/21 00:54:34;;;;;;;52.55;31.30;;;-1.50;99.90;;;;;;5098939;28;20414;-62
2023/01/21 00:57:01;;;;;;;53.17;30.13;;;-1.50;99.90;;;;;;5096614;28;20844;-61
2023/01/21 00:59:28;;;;;;;47.63;30.67;;;-1.50;99.90;;;;;;5095551;28;20424;-60
2023/01/21 01:01:56;;;;;;;48.35;29.88;;;-1.50;99.90;;;;;;5095626;28;20418;-59
2023/01/21 01:04:23;;;;;;;47.45;29.63;;;-1.50;99.90;;;;;;5095389;28;20416;-61
2023/01/21 01:06:49;;;;;;;51.17;31.20;;;-1.60;99.90;;;;;;5094982;28;20904;-61
2023/01/21 01:09:18;;;;;;;51.42;30.30;;;-1.60;99.90;;;;;;5095342;28;20406;-59
2023/01/21 01:11:44;;;;;;;53.17;30.45;;;-1.60;99.90;;;;;;5095310;28;20416;-61
2023/01/21 01:14:11;;;;;;;52.90;30.67;;;-1.60;99.90;;;;;;5095457;28;20425;-59
2023/01/21 01:16:38;;;;;;;49.83;29.27;;;-1.60;99.90;;;;;;5094735;28;20447;-60
2023/01/21 01:19:05;;;;;;;51.70;29.35;;;-1.60;99.90;;;;;;5103868;28;20800;-59
2023/01/21 01:21:31;;;;;;;49.05;30.15;;;-1.60;99.90;;;;;;5096948;28;20750;-59
2023/01/21 01:24:01;;;;;;;53.17;30.83;;;-1.60;99.90;;;;;;5095131;28;20420;-59
2023/01/21 01:26:30;;;;;;;49.60;30.10;;;-1.50;99.90;;;;;;5095030;28;20968;-59
2023/01/21 01:28:56;;;;;;;48.38;28.42;;;-1.40;99.90;;;;;;5095080;28;20414;-59
2023/01/21 01:31:23;;;;;;;47.25;29.25;;;-1.30;99.90;;;;;;5095665;28;20418;-60
2023/01/21 01:33:50;;;;;;;42.45;28.08;;;-1.20;99.90;;;;;;5094659;28;20414;-60
2023/01/21 01:36:19;;;;;;;40.90;26.50;;;-1.10;99.90;;;;;;5094758;28;20432;-60
2023/01/21 01:38:46;;;;;;;41.80;26.02;;;-1.00;99.90;;;;;;5093874;28;20422;-60
2023/01/21 01:41:16;;;;;;;42.03;26.05;;;-1.00;99.90;;;;;;5094897;28;20500;-60
2023/01/21 01:43:53;;;;;;;37.90;24.83;;;-0.90;99.90;;;;;;5094880;28;20413;-59
2023/01/21 01:46:21;;;;;;;40.67;25.52;;;-0.90;99.90;;;;;;5094491;28;20881;-60
2023/01/21 01:48:52;;;;;;;37.78;24.55;;;-0.90;99.90;;;;;;5095083;28;20885;-60
2023/01/21 01:51:23;;;;;;;39.65;24.00;;;-0.80;99.90;;;;;;5095093;28;20877;-58
2023/01/21 01:53:52;;;;;;;36.30;22.88;;;-0.80;99.90;;;;;;5094508;28;20820;-58
2023/01/21 01:56:19;;;;;;;35.90;23.77;;;-0.80;99.90;;;;;;5094244;28;20417;-60
2023/01/21 01:58:46;;;;;;;37.97;22.98;;;-0.70;99.90;;;;;;5094387;28;20778;-59
2023/01/21 02:01:15;;;;;;;33.87;20.80;;;-0.70;99.90;;;;;;5095420;28;20506;-58
2023/01/21 02:03:49;;;;;;;36.13;22.77;;;-0.70;99.90;;;;;;5094577;28;20869;-59
2023/01/21 02:06:18;;;;;;;34.95;21.70;;;-0.60;99.90;;;;;;5094415;28;20491;-60
2023/01/21 02:08:47;;;;;;;36.08;22.77;;;-0.60;99.90;;;;;;5094426;28;20410;-59
2023/01/21 02:11:15;;;;;;;32.17;21.33;;;-0.60;99.90;;;;;;5094494;28;20410;-59
2023/01/21 02:13:46;;;;;;;38.47;22.65;;;-0.60;99.90;;;;;;5093929;28;20885;-59
2023/01/21 02:16:33;;;;;;;35.67;22.23;;;-0.50;99.90;;;;;;5093884;28;20418;-59
2023/01/21 02:19:31;;;;;;;30.90;20.90;;;-0.50;99.90;;;;;;5094225;28;20414;-60
2023/01/21 02:22:07;;;;;;;33.63;20.95;;;-0.50;99.90;;;;;;5036949;28;20422;-59
2023/01/21 02:25:02;;;;;;;38.42;22.25;;;-0.50;99.90;;;;;;5093798;28;20793;-59
2023/01/21 02:27:43;;;;;;;34.13;20.15;;;-0.50;99.90;;;;;;5101291;28;20432;-61
2023/01/21 02:30:38;;;;;;;32.58;21.30;;;-0.50;99.90;;;;;;5101166;28;20406;-60
2023/01/21 02:33:34;;;;;;;33.58;21.15;;;-0.50;99.90;;;;;;5101780;28;20414;-59
2023/01/21 02:36:17;;;;;;;33.78;21.42;;;-0.50;99.90;;;;;;5098996;28;20426;-60
2023/01/21 02:38:52;;;;;;;38.10;21.57;;;-0.40;99.90;;;;;;5099591;28;20413;-59
2023/01/21 02:41:29;;;;;;;34.25;20.95;;;-0.50;99.90;;;;;;5094621;28;20416;-59
2023/01/21 02:44:05;;;;;;;31.63;20.95;;;-0.40;99.90;;;;;;5093597;28;20497;-59
2023/01/21 02:46:40;;;;;;;31.43;20.37;;;-0.40;99.90;;;;;;5093908;28;20519;-59
2023/01/21 02:49:15;;;;;;;32.30;21.48;;;-0.40;99.90;;;;;;5092897;28;20414;-59
2023/01/21 02:51:47;;;;;;;29.92;19.40;;;-0.50;99.90;;;;;;5093513;28;20413;-60
2023/01/21 02:54:15;;;;;;;31.50;20.33;;;-0.50;99.90;;;;;;5093673;28;20421;-59
2023/01/21 02:56:43;;;;;;;30.38;19.30;;;-0.40;99.90;;;;;;5093662;28;20417;-58
2023/01/21 02:59:11;;;;;;;33.92;20.65;;;-0.40;99.90;;;;;;5093442;28;20410;-60
2023/01/21 03:01:48;;;;;;;29.73;19.08;;;-0.40;99.90;;;;;;5093684;28;20523;-59
2023/01/21 03:04:44;;;;;;;29.45;19.10;;;-0.40;99.90;;;;;;5093527;28;20421;-59
2023/01/21 03:07:16;;;;;;;29.83;19.08;;;-0.40;99.90;;;;;;5092937;28;20406;-59
2023/01/21 03:09:43;;;;;;;31.60;20.50;;;-0.40;99.90;;;;;;5093864;28;20467;-59
2023/01/21 03:12:24;;;;;;;30.55;19.20;;;-0.30;99.90;;;;;;5092949;28;20420;-59
2023/01/21 03:17:48;;;;;;;31.17;19.30;;;-0.30;99.90;;;;;;5092393;28;20421;-59
2023/01/21 03:20:22;;;;;;;31.20;19.08;;;-0.20;99.90;;;;;;5093730;28;20773;-59
2023/01/21 03:22:52;;;;;;;30.73;19.52;;;-0.20;99.90;;;;;;5092442;28;20424;-59
2023/01/21 03:25:20;;;;;;;30.90;18.70;;;-0.20;99.90;;;;;;5092801;28;20920;-58
2023/01/21 03:27:49;;;;;;;26.40;18.30;;;-0.10;99.90;;;;;;5092427;28;20414;-60
2023/01/21 03:30:18;;;;;;;26.88;18.45;;;-0.10;99.90;;;;;;5092570;28;20413;-59
2023/01/21 03:32:48;;;;;;;29.60;18.95;;;0.00;99.90;;;;;;5092442;28;20404;-59
2023/01/21 03:35:20;;;;;;;32.15;19.10;;;0.00;99.90;;;;;;5092526;28;20409;-59
2023/01/21 03:37:52;;;;;;;32.80;19.37;;;0.10;99.90;;;;;;5092147;28;20468;-59
2023/01/21 03:40:24;;;;;;;30.20;19.77;;;0.10;99.90;;;;;;5092419;28;20482;-58
2023/01/21 03:42:52;;;;;;;30.85;19.02;;;0.20;99.90;;;;;;5092507;28;20418;-59
2023/01/21 03:45:30;;;;;;;30.35;18.92;;;0.20;99.90;;;;;;5092347;28;20455;-59
2023/01/21 03:48:04;;;;;;;28.83;18.83;;;0.30;99.90;;;;;;5092361;28;20414;-58
2023/01/21 03:50:37;;;;;;;30.38;18.45;;;0.30;99.90;;;;;;5092436;28;20436;-59
2023/01/21 03:53:05;;;;;;;28.13;18.58;;;0.30;99.90;;;;;;5092324;28;20410;-60
2023/01/21 03:55:33;;;;;;;29.58;19.33;;;0.30;99.90;;;;;;5092213;28;20406;-59
2023/01/21 03:58:00;;;;;;;30.42;18.10;;;0.30;99.90;;;;;;5092046;28;21012;-59
2023/01/21 04:00:27;;;;;;;29.42;18.70;;;0.30;99.90;;;;;;5092907;28;20406;-58
2023/01/21 04:02:54;;;;;;;28.05;18.48;;;0.40;99.90;;;;;;5093423;28;20409;-59
2023/01/21 04:05:20;;;;;;;27.90;18.50;;;0.40;99.90;;;;;;5093566;28;20406;-61
2023/01/21 04:11:03;;;;;;;25.55;17.33;;;0.40;99.90;;;;;;5092023;28;20690;-61
2023/01/21 04:13:29;;;;;;;25.30;17.70;;;0.50;99.90;;;;;;5091567;28;20440;-61
2023/01/21 04:15:56;;;;;;;26.73;18.15;;;0.50;99.90;;;;;;5089874;28;20410;-61
2023/01/21 04:18:23;;;;;;;26.60;18.13;;;0.50;99.90;;;;;;5089818;28;20411;-60
2023/01/21 04:20:50;;;;;;;25.70;18.42;;;0.60;99.90;;;;;;5090060;28;20842;-61
2023/01/21 04:23:16;;;;;;;29.42;17.85;;;0.60;99.90;;;;;;5127969;22;20427;-64
2023/01/21 04:25:43;;;;;;;26.98;16.90;;;0.60;99.90;;;;;;5109455;28;20405;-65
2023/01/21 04:28:11;;;;;;;29.45;18.50;;;0.60;99.90;;;;;;5109245;28;20904;-64
2023/01/21 04:30:38;;;;;;;26.38;17.80;;;0.60;99.90;;;;;;5109213;28;20785;-64
2023/01/21 04:33:05;;;;;;;26.60;18.20;;;0.60;99.90;;;;;;5109495;28;20416;-64
2023/01/21 04:35:34;;;;;;;30.35;19.00;;;0.60;99.90;;;;;;5109768;28;20492;-64
2023/01/21 04:38:01;;;;;;;28.65;17.75;;;0.60;99.90;;;;;;5109607;28;20405;-64
2023/01/21 04:40:27;;;;;;;26.73;17.73;;;0.60;99.90;;;;;;5109431;28;20420;-64
2023/01/21 04:42:54;;;;;;;28.15;18.98;;;0.60;99.90;;;;;;5109313;28;20416;-65
2023/01/21 04:45:23;;;;;;;29.58;17.60;;;0.70;99.90;;;;;;5109399;28;20419;-63
2023/01/21 04:47:50;;;;;;;27.33;18.10;;;0.70;99.90;;;;;;5108982;28;20888;-63
2023/01/21 04:50:17;;;;;;;28.67;17.40;;;0.70;99.90;;;;;;5109300;28;20777;-65
2023/01/21 04:52:44;;;;;;;25.27;17.83;;;0.70;99.90;;;;;;5109048;28;20415;-64
2023/01/21 04:55:11;;;;;;;24.02;16.63;;;0.70;99.90;;;;;;5109193;28;20413;-64
2023/01/21 04:57:38;;;;;;;26.90;18.77;;;0.70;99.90;;;;;;5109976;28;20765;-64
2023/01/21 05:00:08;;;;;;;24.83;16.88;;;0.70;99.90;;;;;;5109195;28;20420;-63
2023/01/21 05:02:36;;;;;;;26.67;17.75;;;0.70;99.90;;;;;;5108884;28;20425;-64
2023/01/21 05:05:03;;;;;;;26.70;17.77;;;0.70;99.90;;;;;;5109216;28;20452;-62
2023/01/21 05:07:30;;;;;;;27.92;17.80;;;0.70;99.90;;;;;;5109639;28;20496;-63
2023/01/21 05:09:57;;;;;;;26.88;17.75;;;0.70;99.90;;;;;;5109475;28;20782;-63
2023/01/21 05:12:23;;;;;;;27.15;17.90;;;0.70;99.90;;;;;;5109153;28;20412;-63
2023/01/21 05:14:53;;;;;;;28.80;19.20;;;0.70;99.90;;;;;;5109148;28;20420;-64
2023/01/21 05:17:20;;;;;;;27.02;17.83;;;0.70;99.90;;;;;;5107785;28;20425;-64
2023/01/21 05:19:49;;;;;;;24.95;17.15;;;0.70;99.90;;;;;;5108009;28;20436;-64
2023/01/21 05:22:16;;;;;;;24.70;16.70;;;0.60;99.90;;;;;;5095839;28;20430;-63
2023/01/21 05:24:43;;;;;;;25.35;18.00;;;0.60;99.90;;;;;;5095191;28;20968;-64
2023/01/21 05:27:10;;;;;;;23.80;15.30;;;0.60;99.90;;;;;;5096557;28;20566;-63
2023/01/21 05:29:37;;;;;;;21.75;14.60;;;0.60;99.90;;;;;;5096247;28;20216;-63
2023/01/21 05:32:04;;;;;;;23.90;13.90;;;0.60;99.90;;;;;;5096347;28;20230;-63
2023/01/21 05:34:30;;;;;;;25.15;14.40;;;0.60;99.90;;;;;;5096318;28;20196;-63
2023/01/21 05:36:58;;;;;;;20.38;13.05;;;0.60;99.90;;;;;;5081517;28;20197;-63
2023/01/21 05:39:25;;;;;;;24.70;13.55;;;0.60;99.90;;;;;;5075930;28;20223;-64
2023/01/21 05:41:52;;;;;;;27.52;14.80;;;0.60;99.90;;;;;;5075798;28;20216;-63
2023/01/21 05:44:19;;;;;;;23.92;14.88;;;0.60;99.90;;;;;;5075532;28;20205;-64
2023/01/21 05:46:46;;;;;;;19.52;13.25;;;0.60;99.90;;;;;;5075873;28;20211;-62
2023/01/21 05:49:13;;;;;;;23.05;12.88;;;0.60;99.90;;;;;;5079962;28;20639;-62
2023/01/21 05:51:39;;;;;;;23.33;13.60;;;0.60;99.90;;;;;;5094843;28;20204;-63
2023/01/21 05:54:08;;;;;;;21.63;14.07;;;0.60;99.90;;;;;;5095674;28;20206;-65
2023/01/21 05:56:34;;;;;;;20.17;12.40;;;0.60;99.90;;;;;;5095971;28;20193;-63
2023/01/21 05:59:01;;;;;;;23.63;13.82;;;0.60;99.90;;;;;;5095691;28;20204;-63
2023/01/21 06:01:28;;;;;;;18.23;11.40;;;0.70;99.90;;;;;;5095493;28;20227;-64
2023/01/21 06:03:55;;;;;;;23.17;14.38;;;0.70;99.90;;;;;;5094075;28;20772;-64
2023/01/21 06:06:22;;;;;;;23.65;14.40;;;0.70;99.90;;;;;;5094377;28;20418;-63
2023/01/21 06:08:48;;;;;;;23.52;15.82;;;0.70;99.90;;;;;;5094368;28;20417;-63
2023/01/21 06:11:17;;;;;;;22.23;14.85;;;0.70;99.90;;;;;;5094372;28;20789;-64
2023/01/21 06:13:43;;;;;;;21.08;14.68;;;0.70;99.90;;;;;;5094798;28;20502;-63
2023/01/21 06:16:10;;;;;;;25.35;15.77;;;0.70;99.90;;;;;;5095030;28;20775;-62
2023/01/21 06:18:37;;;;;;;21.83;14.63;;;0.80;99.90;;;;;;5095132;28;20801;-63
2023/01/21 06:21:04;;;;;;;24.58;15.95;;;0.80;99.90;;;;;;5095457;28;20414;-65
2023/01/21 06:23:31;;;;;;;22.83;15.55;;;0.80;99.90;;;;;;5094348;28;20513;-64
2023/01/21 06:25:59;;;;;;;23.48;15.18;;;0.80;99.90;;;;;;5094174;28;20432;-63
2023/01/21 06:28:28;;;;;;;22.15;15.07;;;0.90;99.90;;;;;;5093079;28;20430;-64
2023/01/21 06:30:55;;;;;;;21.10;15.00;;;0.90;99.90;;;;;;5092753;28;20850;-63
2023/01/21 06:33:22;;;;;;;24.98;15.77;;;0.80;99.90;;;;;;5090324;28;20429;-65
2023/01/21 06:35:49;;;;;;;23.33;15.13;;;0.80;99.90;;;;;;5092626;28;20433;-63
2023/01/21 06:38:15;;;;;;;26.83;16.55;;;0.80;99.90;;;;;;5092758;28;20422;-65
2023/01/21 06:40:43;;;;;;;22.42;15.70;;;0.90;99.90;;;;;;5092201;28;20418;-63
2023/01/21 06:43:10;;;;;;;24.05;15.45;;;0.80;99.90;;;;;;5092120;28;20434;-63
2023/01/21 06:45:38;;;;;;;23.67;15.80;;;0.80;99.90;;;;;;5092057;28;20422;-64
2023/01/21 06:48:05;;;;;;;24.00;16.98;;;0.80;99.90;;;;;;5073485;28;20494;-63
2023/01/21 06:50:32;;;;;;;26.55;18.48;;;0.80;99.90;;;;;;5085123;28;20425;-63
2023/01/21 06:52:59;;;;;;;27.08;17.88;;;0.70;99.90;;;;;;5093206;28;20416;-63
2023/01/21 06:55:26;;;;;;;27.73;19.00;;;0.70;99.90;;;;;;5092323;28;20425;-63
2023/01/21 06:57:52;;;;;;;28.65;19.35;;;0.70;99.90;;;;;;5093961;28;20838;-64
2023/01/21 07:00:20;;;;;;;27.25;18.63;;;0.60;99.90;;;;;;5091932;28;20928;-63
2023/01/21 07:02:48;;;;;;;30.02;19.77;;;0.60;99.90;;;;;;5092437;28;20410;-65
2023/01/21 07:05:15;;;;;;;31.23;19.20;;;0.60;99.90;;;;;;5089557;28;20505;-64
2023/01/21 07:07:42;;;;;;;27.93;19.70;;;0.60;99.90;;;;;;5090509;28;20434;-62
2023/01/21 07:10:10;;;;;;;29.92;20.08;;;0.60;99.90;;;;;;5088217;28;20436;-64
2023/01/21 07:12:37;;;;;;;27.63;18.90;;;0.60;99.90;;;;;;5089466;28;20432;-65
2023/01/21 07:15:05;;;;;;;31.73;19.47;;;0.60;99.90;;;;;;5088484;28;20426;-64
2023/01/21 07:17:32;;;;;;;26.85;18.63;;;0.60;99.90;;;;;;5090809;28;20924;-64
2023/01/21 07:20:01;;;;;;;30.75;20.23;;;0.60;99.90;;;;;;5091180;28;20920;-64
2023/01/21 07:22:27;;;;;;;29.58;19.25;;;0.50;99.90;;;;;;5092099;28;20437;-65
2023/01/21 07:24:54;;;;;;;31.45;19.48;;;0.50;99.90;;;;;;5089408;28;20430;-63
2023/01/21 07:27:21;;;;;;;29.55;19.55;;;0.50;99.90;;;;;;5088388;28;20422;-64
2023/01/21 07:29:48;;;;;;;33.55;20.38;;;0.50;99.90;;;;;;5094243;28;20422;-62
2023/01/21 07:32:15;;;;;;;28.70;19.38;;;0.40;99.90;;;;;;5093733;28;20416;-61
2023/01/21 07:34:42;;;;;;;31.75;19.23;;;0.40;99.90;;;;;;5092700;28;20504;-63
2023/01/21 07:37:10;;;;;;;31.30;19.90;;;0.40;99.90;;;;;;5090190;28;21186;-64
2023/01/21 07:39:37;;;;;;;33.75;18.88;;;0.30;99.90;;;;;;5092370;28;20834;-64
2023/01/21 07:42:04;;;;;;;28.50;19.20;;;0.40;99.90;;;;;;5093392;28;20410;-63
2023/01/21 07:44:31;;;;;;;30.25;18.75;;;0.40;99.90;;;;;;5092414;28;20448;-62
2023/01/21 07:46:57;;;;;;;28.30;18.52;;;0.40;99.90;;;;;;5093034;28;20818;-62
2023/01/21 07:49:24;;;;;;;32.17;18.77;;;0.40;99.90;;;;;;5092665;28;20430;-62
2023/01/21 07:51:56;;;;;;;29.70;19.50;;;0.40;99.90;;;;;;5093429;28;20425;-62
2023/01/21 07:54:24;;;;;;;30.43;19.10;;;0.30;99.90;;;;;;5092837;28;20425;-64
2023/01/21 07:56:51;;;;;;;28.40;18.20;;;0.30;99.90;;;;;;5091052;28;20437;-64
2023/01/21 07:59:18;;;;;;;30.50;19.97;;;0.40;99.90;;;;;;5092303;28;20899;-64
2023/01/21 08:01:45;;;;;;;29.85;19.05;;;0.40;99.90;;;;;;5092485;28;20410;-64
2023/01/21 08:04:12;;;;;;;28.30;18.50;;;0.40;99.90;;;;;;5092581;28;20410;-63
2023/01/21 08:06:40;;;;;;;29.45;18.48;;;0.50;99.90;;;;;;5093669;28;20441;-64
2023/01/21 08:09:07;;;;;;;29.25;17.92;;;0.50;99.90;;;;;;5093754;28;20452;-65
2023/01/21 08:11:35;;;;;;;28.85;18.40;;;0.50;99.90;;;;;;5095722;28;20487;-64
2023/01/21 08:14:02;;;;;;;27.73;17.90;;;0.50;99.90;;;;;;5094714;28;20434;-65
2023/01/21 08:16:29;;;;;;;30.50;19.02;;;0.60;99.90;;;;;;5096062;28;20500;-63
2023/01/21 08:18:56;;;;;;;26.92;17.73;;;0.60;99.90;;;;;;5094922;28;20477;-64
2023/01/21 08:21:24;;;;;;;26.85;18.52;;;0.60;99.90;;;;;;5096260;28;20479;-64
2023/01/21 08:23:51;;;;;;;30.90;18.80;;;0.60;99.90;;;;;;5095246;28;20842;-64
2023/01/21 08:26:18;;;;;;;29.20;17.52;;;0.60;99.90;;;;;;5092543;28;20456;-63
2023/01/21 08:28:46;;;;;;;27.80;18.40;;;0.60;99.90;;;;;;5092496;28;20457;-64
2023/01/21 08:31:13;;;;;;;28.27;18.92;;;0.60;99.90;;;;;;5091022;28;20426;-64
2023/01/21 08:33:40;;;;;;;27.10;18.50;;;0.50;99.90;;;;;;5093875;28;20472;-64
2023/01/21 08:36:09;;;;;;;27.67;17.98;;;0.50;99.90;;;;;;5093148;28;20453;-63
2023/01/21 08:38:36;;;;;;;31.65;19.40;;;0.50;99.90;;;;;;5093388;28;20413;-64
2023/01/21 08:41:03;;;;;;;29.02;18.48;;;0.50;99.90;;;;;;5092295;28;20422;-63
2023/01/21 08:43:30;;;;;;;28.38;18.05;;;0.50;99.90;;;;;;5092519;28;20417;-63
2023/01/21 08:46:00;;;;;;;26.30;18.02;;;0.50;99.90;;;;;;5091982;28;20430;-63
2023/01/21 08:48:27;;;;;;;31.67;18.65;;;0.50;99.90;;;;;;5095686;28;20414;-63
2023/01/21 08:50:54;;;;;;;28.85;17.90;;;0.50;99.90;;;;;;5091418;28;20425;-63
2023/01/21 08:53:21;;;;;;;28.17;17.42;;;0.50;99.90;;;;;;5092184;28;20436;-63
2023/01/21 08:55:48;;;;;;;26.70;16.80;;;0.50;99.90;;;;;;5094151;28;20453;-63
2023/01/21 08:58:15;;;;;;;30.38;17.80;;;0.50;99.90;;;;;;5096750;28;20432;-63
2023/01/21 09:00:43;;;;;;;27.40;17.80;;;0.60;99.90;;;;;;5096692;28;20421;-65
2023/01/21 09:03:12;;;;;;;27.25;17.08;;;0.60;99.90;;;;;;5095451;28;20433;-60
2023/01/21 09:05:39;;;;;;;27.98;17.25;;;0.60;99.90;;;;;;5096948;28;20422;-63
2023/01/21 09:08:06;;;;;;;27.92;17.00;;;0.70;99.90;;;;;;5096349;28;20445;-65
2023/01/21 09:13:18;;;;;;;24.70;16.60;;;0.80;99.90;;;;;;5096231;28;20397;-64
2023/01/21 09:15:45;;;;;;;25.45;16.92;;;0.90;99.90;;;;;;5077825;28;20431;-66
2023/01/21 09:18:14;;;;;;;25.73;15.35;;;0.90;99.90;;;;;;5077508;28;20203;-64
2023/01/21 09:20:40;;;;;;;24.25;13.90;;;1.00;99.90;;;;;;5094290;28;20200;-64
2023/01/21 09:23:22;;;;;;;23.67;15.93;;;1.00;99.90;;;;;;5096315;28;20231;-64
2023/01/21 09:25:50;;;;;;;27.20;14.00;;;1.10;99.90;;;;;;5098580;28;20193;-63
2023/01/21 09:28:17;;;;;;;26.40;15.90;;;1.10;99.90;;;;;;5094334;28;20913;-65
2023/01/21 09:30:44;;;;;;;27.70;17.02;;;1.10;99.90;;;;;;5095672;28;20454;-64
2023/01/21 09:33:11;;;;;;;26.27;16.77;;;1.10;99.90;;;;;;5094510;28;20434;-64
2023/01/21 09:35:39;;;;;;;25.63;16.50;;;1.10;99.90;;;;;;5095964;28;20442;-65
2023/01/21 09:38:06;;;;;;;26.07;16.80;;;1.10;99.90;;;;;;5095485;28;20434;-65
2023/01/21 09:40:34;;;;;;;26.23;17.23;;;1.10;99.90;;;;;;5093877;28;20851;-64
2023/01/21 09:43:10;;;;;;;27.60;17.48;;;1.10;99.90;;;;;;5096684;28;20434;-64
2023/01/21 09:45:37;;;;;;;26.30;15.87;;;1.10;99.90;;;;;;5096081;28;20511;-64
2023/01/21 09:48:06;;;;;;;24.95;15.63;;;1.10;99.90;;;;;;5095885;28;20417;-65
2023/01/21 09:50:35;;;;;;;26.42;16.45;;;1.10;99.90;;;;;;5095431;28;20413;-64
2023/01/21 09:53:12;;;;;;;26.90;17.42;;;1.10;99.90;;;;;;5096560;28;20765;-64
2023/01/21 09:55:46;;;;;;;24.95;16.33;;;1.10;99.90;;;;;;5096149;28;20509;-63
2023/01/21 09:58:21;;;;;;;25.40;16.45;;;1.10;99.90;;;;;;5096237;28;20453;-65
2023/01/21 10:00:53;;;;;;;23.63;15.30;;;1.10;99.90;;;;;;5096192;28;20441;-64
2023/01/21 10:03:29;;;;;;;22.75;14.90;;;1.10;99.90;;;;;;5095719;28;20414;-65
2023/01/21 10:06:12;;;;;;;26.00;15.70;;;1.10;99.90;;;;;;5095513;28;20418;-65
2023/01/21 10:08:57;;;;;;;26.90;15.02;;;1.20;99.90;;;;;;5095395;28;20446;-64
2023/01/21 10:11:36;;;;;;;24.23;14.50;;;1.20;99.90;;;;;;5095416;28;20433;-66
2023/01/21 10:14:31;;;;;;;22.52;15.30;;;1.30;99.90;;;;;;5095515;28;20755;-64
2023/01/21 10:17:03;;;;;;;23.25;14.93;;;1.30;99.90;;;;;;5095836;28;20535;-65
2023/01/21 10:19:36;;;;;;;23.25;15.88;;;1.40;99.90;;;;;;5096256;28;20498;-65
2023/01/21 10:22:09;;;;;;;26.15;16.20;;;1.40;99.90;;;;;;5112456;22;20416;-65
2023/01/21 10:24:44;;;;;;;24.92;16.23;;;1.40;99.90;;;;;;5054267;28;20481;-63
2023/01/21 10:27:16;;;;;;;24.58;16.60;;;1.50;99.90;;;;;;5056052;28;20463;-63
2023/01/21 10:29:43;;;;;;;25.40;16.48;;;1.50;99.90;;;;;;5056654;28;20485;-65
2023/01/21 10:32:15;;;;;;;24.90;15.95;;;1.50;99.90;;;;;;5057241;28;20432;-64
2023/01/21 10:34:49;;;;;;;23.85;16.08;;;1.60;99.90;;;;;;5056684;28;20427;-65
2023/01/21 10:37:21;;;;;;;27.17;17.08;;;1.70;99.90;;;;;;5057345;28;20412;-65
2023/01/21 10:40:00;;;;;;;23.23;15.85;;;1.70;99.90;;;;;;5056955;28;20421;-63
2023/01/21 10:42:50;;;;;;;27.50;16.33;;;1.80;99.90;;;;;;5056106;28;20409;-63
2023/01/21 10:45:29;;;;;;;24.38;15.55;;;1.80;99.90;;;;;;5056758;28;20409;-64
2023/01/21 10:48:04;;;;;;;23.25;15.60;;;1.80;99.90;;;;;;5057198;28;20424;-64
2023/01/21 10:50:40;;;;;;;24.33;15.27;;;1.90;99.90;;;;;;5056652;28;20414;-63
2023/01/21 10:53:16;;;;;;;24.60;15.85;;;1.90;99.90;;;;;;5057005;28;20803;-64
2023/01/21 10:56:00;;;;;;;23.27;14.30;;;2.00;99.90;;;;;;5055668;28;20907;-64
2023/01/21 10:58:31;;;;;;;23.23;14.77;;;2.00;99.90;;;;;;5057009;28;20427;-64
2023/01/21 11:01:01;;;;;;;23.67;15.10;;;2.10;99.90;;;;;;5056040;28;20413;-65
2023/01/21 11:03:34;;;;;;;24.37;14.50;;;2.10;99.90;;;;;;5059051;28;20790;-63
2023/01/21 11:06:03;;;;;;;23.65;14.90;;;2.10;99.90;;;;;;5056384;28;20401;-63
2023/01/21 11:08:30;;;;;;;25.95;15.07;;;2.20;99.90;;;;;;5054827;28;20417;-64
2023/01/21 11:10:59;;;;;;;25.13;15.20;;;2.20;99.90;;;;;;5055867;28;20413;-66
2023/01/21 11:13:26;;;;;;;24.25;13.98;;;2.30;99.90;;;;;;5055773;28;20413;-65
2023/01/21 11:15:57;;;;;;;24.63;14.77;;;2.30;99.90;;;;;;5055684;28;20927;-64
2023/01/21 11:18:28;;;;;;;21.85;14.23;;;2.40;99.90;;;;;;5055112;28;20414;-64
2023/01/21 11:20:59;;;;;;;24.95;15.02;;;2.40;99.90;;;;;;5056360;28;20419;-62
2023/01/21 11:23:28;;;;;;;24.35;14.50;;;2.50;99.90;;;;;;5056321;28;20413;-64
2023/01/21 11:26:05;;;;;;;21.33;13.90;;;2.50;99.90;;;;;;5056416;28;20412;-65
2023/01/21 11:28:33;;;;;;;21.52;13.63;;;2.50;99.90;;;;;;5057140;28;20436;-65
2023/01/21 11:31:07;;;;;;;20.58;13.43;;;2.50;99.90;;;;;;5057059;28;20437;-65
2023/01/21 11:33:35;;;;;;;22.08;13.90;;;2.50;99.90;;;;;;5056296;28;20422;-64
2023/01/21 11:36:14;;;;;;;23.05;13.05;;;2.50;99.90;;;;;;5055162;28;20413;-64
2023/01/21 11:38:41;;;;;;;20.90;13.48;;;2.50;99.90;;;;;;5054815;28;20409;-64
2023/01/21 11:41:19;;;;;;;22.20;13.23;;;2.60;99.90;;;;;;5056527;28;20413;-63
2023/01/21 11:43:49;;;;;;;23.23;13.40;;;2.50;99.90;;;;;;5055889;28;20432;-65
2023/01/21 11:46:33;;;;;;;23.27;13.63;;;2.50;99.90;;;;;;5058515;28;20784;-63
2023/01/21 11:49:19;;;;;;;22.40;13.50;;;2.50;99.90;;;;;;5062461;28;20405;-65
2023/01/21 11:51:47;;;;;;;24.02;14.23;;;2.50;99.90;;;;;;5063757;28;20510;-63
2023/01/21 11:54:15;;;;;;;24.27;13.30;;;2.40;99.90;;;;;;5062365;28;20417;-65
2023/01/21 11:56:54;;;;;;;26.35;14.27;;;2.50;99.90;;;;;;5060995;28;20481;-63
2023/01/21 11:59:25;;;;;;;24.85;14.27;;;2.50;99.90;;;;;;5060862;28;20460;-64
2023/01/21 12:01:55;;;;;;;26.17;13.95;;;2.50;99.90;;;;;;5060376;28;20411;-62
2023/01/21 12:04:23;;;;;;;22.88;13.50;;;2.50;99.90;;;;;;5057065;28;20504;-64
2023/01/21 12:06:54;;;;;;;22.60;13.40;;;2.50;99.90;;;;;;5054134;28;20428;-64
2023/01/21 12:09:21;;;;;;;25.33;13.10;;;2.60;99.90;;;;;;5053672;28;20452;-64
2023/01/21 12:12:07;;;;;;;21.05;12.73;;;2.60;99.90;;;;;;5053343;28;20425;-63
2023/01/21 12:14:50;;;;;;;20.85;12.63;;;2.60;99.90;;;;;;5053908;28;20417;-63
2023/01/21 12:17:22;;;;;;;20.20;12.40;;;2.60;99.90;;;;;;5054149;28;20432;-63
2023/01/21 12:20:10;;;;;;;18.40;11.50;;;2.70;99.90;;;;;;5053668;28;20429;-64
2023/01/21 12:22:52;;;;;;;18.23;12.30;;;2.70;99.90;;;;;;5053589;28;20417;-64
2023/01/21 12:25:27;;;;;;;21.30;12.60;;;2.80;99.90;;;;;;5054450;28;20415;-64
2023/01/21 12:28:22;;;;;;;18.33;11.80;;;2.90;99.90;;;;;;5055433;28;20429;-65
2023/01/21 12:30:59;;;;;;;19.83;12.15;;;2.90;99.90;;;;;;5021657;28;20440;-65
2023/01/21 12:33:41;;;;;;;19.58;11.68;;;3.00;99.90;;;;;;5058989;28;20429;-64
2023/01/21 12:36:13;;;;;;;19.60;13.10;;;3.00;99.90;;;;;;5059559;28;20413;-64
2023/01/21 12:38:43;;;;;;;17.58;12.02;;;3.00;99.90;;;;;;5059523;28;20427;-63
2023/01/21 12:41:14;;;;;;;21.08;12.65;;;3.00;99.90;;;;;;5059200;28;20409;-63
2023/01/21 12:43:46;;;;;;;21.90;13.20;;;3.00;99.90;;;;;;5060723;28;20445;-63
2023/01/21 12:46:16;;;;;;;19.80;12.30;;;3.00;99.90;;;;;;5059397;28;20483;-64
2023/01/21 12:48:46;;;;;;;21.20;13.02;;;3.00;99.90;;;;;;5059547;28;20424;-65
2023/01/21 12:51:20;;;;;;;19.55;12.60;;;3.00;99.90;;;;;;5060688;28;20424;-66
2023/01/21 12:53:53;;;;;;;18.95;11.52;;;3.00;99.90;;;;;;5059341;28;20409;-64
2023/01/21 12:56:28;;;;;;;18.98;12.43;;;3.00;99.90;;;;;;5059173;28;20768;-63